sensor_id;sensor_type;location;lat;lon;timestamp;temperature;humidity
31695;DHT22;18289;51.330;4.946;2022-09-09T00:00:40;15.00;99.90
31695;DHT22;18289;51.330;4.946;2022-09-09T00:03:19;14.90;99.90
31695;DHT22;18289;51.330;4.946;2022-09-09T00:11:05;14.90;99.90
31695;DHT22;18289;51.330;4.946;2022-09-09T00:13:37;14.90;99.90
31695;DHT22;18289;51.330;4.946;2022-09-09T00:16:17;14.90;99.90
31695;DHT22;18289;51.330;4.946;2022-09-09T00:21:46;14.90;99.90
31695;DHT22;18289;51.330;4.946;2022-09-09T00:24:26;14.80;99.90
31695;DHT22;18289;51.330;4.946;2022-09-09T00:26:59;14.80;99.90
31695;DHT22;18289;51.330;4.946;2022-09-09T00:30:13;14.80;99.90
31695;DHT22;18289;51.330;4.946;2022-09-09T00:32:34;14.80;99.90
31695;DHT22;18289;51.330;4.946;2022-09-09T00:35:18;14.80;99.90
31695;DHT22;18289;51.330;4.946;2022-09-09T00:37:48;14.70;99.90
31695;DHT22;18289;51.330;4.946;2022-09-09T00:40:34;14.70;99.90
31695;DHT22;18289;51.330;4.946;2022-09-09T00:43:29;14.70;99.90
31695;DHT22;18289;51.330;4.946;2022-09-09T00:59:51;14.70;99.90
31695;DHT22;18289;51.330;4.946;2022-09-09T01:04:53;14.70;99.90
31695;DHT22;18289;51.330;4.946;2022-09-09T01:07:20;14.70;99.90
31695;DHT22;18289;51.330;4.946;2022-09-09T01:09:56;14.70;99.90
31695;DHT22;18289;51.330;4.946;2022-09-09T01:12:38;14.70;99.90
31695;DHT22;18289;51.330;4.946;2022-09-09T01:17:49;14.70;99.90
31695;DHT22;18289;51.330;4.946;2022-09-09T01:28:16;14.70;99.90
31695;DHT22;18289;51.330;4.946;2022-09-09T01:30:43;14.70;99.90
31695;DHT22;18289;51.330;4.946;2022-09-09T01:33:14;14.70;99.90
31695;DHT22;18289;51.330;4.946;2022-09-09T01:35:54;14.70;99.90
31695;DHT22;18289;51.330;4.946;2022-09-09T01:38:22;14.80;99.90
31695;DHT22;18289;51.330;4.946;2022-09-09T01:40:49;14.80;99.90
31695;DHT22;18289;51.330;4.946;2022-09-09T01:43:18;14.80;99.90
31695;DHT22;18289;51.330;4.946;2022-09-09T01:45:46;14.70;99.90
31695;DHT22;18289;51.330;4.946;2022-09-09T01:48:13;14.70;99.90
31695;DHT22;18289;51.330;4.946;2022-09-09T01:50:39;14.70;99.90
31695;DHT22;18289;51.330;4.946;2022-09-09T01:53:06;14.70;99.90
31695;DHT22;18289;51.330;4.946;2022-09-09T01:55:38;14.70;99.90
31695;DHT22;18289;51.330;4.946;2022-09-09T02:00:30;14.70;99.90
31695;DHT22;18289;51.330;4.946;2022-09-09T02:03:00;14.70;99.90
31695;DHT22;18289;51.330;4.946;2022-09-09T02:05:57;14.70;99.90
31695;DHT22;18289;51.330;4.946;2022-09-09T02:08:33;14.60;99.90
31695;DHT22;18289;51.330;4.946;2022-09-09T02:11:07;14.60;99.90
31695;DHT22;18289;51.330;4.946;2022-09-09T02:13:37;14.60;99.90
31695;DHT22;18289;51.330;4.946;2022-09-09T02:18:51;14.60;99.90
31695;DHT22;18289;51.330;4.946;2022-09-09T02:21:18;14.60;99.90
31695;DHT22;18289;51.330;4.946;2022-09-09T02:23:47;14.60;99.90
31695;DHT22;18289;51.330;4.946;2022-09-09T02:26:15;14.60;99.90
31695;DHT22;18289;51.330;4.946;2022-09-09T02:28:47;14.60;99.90
31695;DHT22;18289;51.330;4.946;2022-09-09T02:31:17;14.60;99.90
31695;DHT22;18289;51.330;4.946;2022-09-09T02:33:47;14.60;99.90
31695;DHT22;18289;51.330;4.946;2022-09-09T02:36:16;14.70;99.90
31695;DHT22;18289;51.330;4.946;2022-09-09T02:38:46;14.60;99.90
31695;DHT22;18289;51.330;4.946;2022-09-09T02:41:24;14.60;99.90
31695;DHT22;18289;51.330;4.946;2022-09-09T02:43:51;14.50;99.90
31695;DHT22;18289;51.330;4.946;2022-09-09T02:49:02;14.40;99.90
31695;DHT22;18289;51.330;4.946;2022-09-09T02:51:35;14.40;99.90
31695;DHT22;18289;51.330;4.946;2022-09-09T02:56:39;14.50;99.90
31695;DHT22;18289;51.330;4.946;2022-09-09T02:59:06;14.60;99.90
31695;DHT22;18289;51.330;4.946;2022-09-09T03:01:35;14.60;99.90
31695;DHT22;18289;51.330;4.946;2022-09-09T03:04:02;14.50;99.90
31695;DHT22;18289;51.330;4.946;2022-09-09T03:06:30;14.60;99.90
31695;DHT22;18289;51.330;4.946;2022-09-09T03:08:56;14.60;99.90
31695;DHT22;18289;51.330;4.946;2022-09-09T03:11:24;14.40;99.90
31695;DHT22;18289;51.330;4.946;2022-09-09T03:13:50;14.50;99.90
31695;DHT22;18289;51.330;4.946;2022-09-09T03:16:17;14.50;99.90
31695;DHT22;18289;51.330;4.946;2022-09-09T03:18:43;14.60;99.90
31695;DHT22;18289;51.330;4.946;2022-09-09T03:21:10;14.50;99.90
31695;DHT22;18289;51.330;4.946;2022-09-09T03:23:36;14.50;99.90
31695;DHT22;18289;51.330;4.946;2022-09-09T03:26:02;14.60;99.90
31695;DHT22;18289;51.330;4.946;2022-09-09T03:28:28;14.50;99.90
31695;DHT22;18289;51.330;4.946;2022-09-09T03:31:04;14.60;99.90
31695;DHT22;18289;51.330;4.946;2022-09-09T03:33:30;14.60;99.90
31695;DHT22;18289;51.330;4.946;2022-09-09T03:35:57;14.60;99.90
31695;DHT22;18289;51.330;4.946;2022-09-09T03:38:25;14.50;99.90
31695;DHT22;18289;51.330;4.946;2022-09-09T03:40:52;14.60;99.90
31695;DHT22;18289;51.330;4.946;2022-09-09T03:43:21;14.60;99.90
31695;DHT22;18289;51.330;4.946;2022-09-09T03:45:47;14.60;99.90
31695;DHT22;18289;51.330;4.946;2022-09-09T03:48:14;14.50;99.90
31695;DHT22;18289;51.330;4.946;2022-09-09T03:50:51;14.60;99.90
31695;DHT22;18289;51.330;4.946;2022-09-09T03:53:18;14.60;99.90
31695;DHT22;18289;51.330;4.946;2022-09-09T03:55:46;14.60;99.90
31695;DHT22;18289;51.330;4.946;2022-09-09T03:58:15;14.50;99.90
31695;DHT22;18289;51.330;4.946;2022-09-09T04:00:41;14.50;99.90
31695;DHT22;18289;51.330;4.946;2022-09-09T04:03:10;14.60;99.90
31695;DHT22;18289;51.330;4.946;2022-09-09T04:05:39;14.60;99.90
31695;DHT22;18289;51.330;4.946;2022-09-09T04:08:08;14.60;99.90
31695;DHT22;18289;51.330;4.946;2022-09-09T04:10:34;14.70;99.90
31695;DHT22;18289;51.330;4.946;2022-09-09T04:13:04;14.70;99.90
31695;DHT22;18289;51.330;4.946;2022-09-09T04:15:30;14.70;99.90
31695;DHT22;18289;51.330;4.946;2022-09-09T04:17:56;14.70;99.90
31695;DHT22;18289;51.330;4.946;2022-09-09T04:20:23;14.60;99.90
31695;DHT22;18289;51.330;4.946;2022-09-09T04:22:48;14.60;99.90
31695;DHT22;18289;51.330;4.946;2022-09-09T04:25:14;14.70;99.90
31695;DHT22;18289;51.330;4.946;2022-09-09T04:27:40;14.60;99.90
31695;DHT22;18289;51.330;4.946;2022-09-09T04:30:07;14.70;99.90
31695;DHT22;18289;51.330;4.946;2022-09-09T04:32:33;14.70;99.90
31695;DHT22;18289;51.330;4.946;2022-09-09T04:34:59;14.90;99.90
31695;DHT22;18289;51.330;4.946;2022-09-09T04:37:25;14.90;99.90
31695;DHT22;18289;51.330;4.946;2022-09-09T04:39:51;14.90;99.90
31695;DHT22;18289;51.330;4.946;2022-09-09T04:42:17;14.80;99.90
31695;DHT22;18289;51.330;4.946;2022-09-09T04:44:45;14.90;99.90
31695;DHT22;18289;51.330;4.946;2022-09-09T04:47:14;14.90;99.90
31695;DHT22;18289;51.330;4.946;2022-09-09T04:49:45;14.80;99.90
31695;DHT22;18289;51.330;4.946;2022-09-09T04:52:12;14.80;99.90
31695;DHT22;18289;51.330;4.946;2022-09-09T04:54:37;14.80;99.90
31695;DHT22;18289;51.330;4.946;2022-09-09T04:57:04;14.70;99.90
31695;DHT22;18289;51.330;4.946;2022-09-09T04:59:30;14.70;99.90
31695;DHT22;18289;51.330;4.946;2022-09-09T05:01:56;14.70;99.90
31695;DHT22;18289;51.330;4.946;2022-09-09T05:04:22;14.70;99.90
31695;DHT22;18289;51.330;4.946;2022-09-09T05:06:48;14.70;99.90
31695;DHT22;18289;51.330;4.946;2022-09-09T05:09:13;14.80;99.90
31695;DHT22;18289;51.330;4.946;2022-09-09T05:11:39;14.80;99.90
31695;DHT22;18289;51.330;4.946;2022-09-09T05:14:05;14.70;99.90
31695;DHT22;18289;51.330;4.946;2022-09-09T05:16:31;14.80;99.90
31695;DHT22;18289;51.330;4.946;2022-09-09T05:18:57;14.80;99.90
31695;DHT22;18289;51.330;4.946;2022-09-09T05:21:24;14.80;99.90
31695;DHT22;18289;51.330;4.946;2022-09-09T05:23:51;14.70;99.90
31695;DHT22;18289;51.330;4.946;2022-09-09T05:26:19;14.80;99.90
31695;DHT22;18289;51.330;4.946;2022-09-09T05:28:46;14.90;99.90
31695;DHT22;18289;51.330;4.946;2022-09-09T05:31:13;14.80;99.90
31695;DHT22;18289;51.330;4.946;2022-09-09T05:33:42;14.90;99.90
31695;DHT22;18289;51.330;4.946;2022-09-09T05:36:14;15.00;99.90
31695;DHT22;18289;51.330;4.946;2022-09-09T05:38:40;15.10;99.90
31695;DHT22;18289;51.330;4.946;2022-09-09T05:41:07;15.10;99.90
31695;DHT22;18289;51.330;4.946;2022-09-09T05:43:33;15.10;99.90
31695;DHT22;18289;51.330;4.946;2022-09-09T05:48:36;15.20;99.90
31695;DHT22;18289;51.330;4.946;2022-09-09T05:51:04;15.10;99.90
31695;DHT22;18289;51.330;4.946;2022-09-09T05:53:31;15.20;99.90
31695;DHT22;18289;51.330;4.946;2022-09-09T05:56:03;15.20;99.90
31695;DHT22;18289;51.330;4.946;2022-09-09T05:58:33;15.20;99.90
31695;DHT22;18289;51.330;4.946;2022-09-09T06:01:04;15.20;99.90
31695;DHT22;18289;51.330;4.946;2022-09-09T06:03:30;15.40;99.90
31695;DHT22;18289;51.330;4.946;2022-09-09T06:06:01;15.50;99.90
31695;DHT22;18289;51.330;4.946;2022-09-09T06:08:27;15.60;99.90
31695;DHT22;18289;51.330;4.946;2022-09-09T06:10:53;15.60;99.90
31695;DHT22;18289;51.330;4.946;2022-09-09T06:13:19;15.60;99.90
31695;DHT22;18289;51.330;4.946;2022-09-09T06:15:51;15.60;99.90
31695;DHT22;18289;51.330;4.946;2022-09-09T06:18:18;15.70;99.90
31695;DHT22;18289;51.330;4.946;2022-09-09T06:20:59;15.70;99.90
31695;DHT22;18289;51.330;4.946;2022-09-09T06:23:33;15.70;99.90
31695;DHT22;18289;51.330;4.946;2022-09-09T06:26:03;15.80;99.90
31695;DHT22;18289;51.330;4.946;2022-09-09T06:28:34;15.90;99.90
31695;DHT22;18289;51.330;4.946;2022-09-09T06:31:02;15.90;99.90
31695;DHT22;18289;51.330;4.946;2022-09-09T06:33:35;16.00;99.90
31695;DHT22;18289;51.330;4.946;2022-09-09T06:36:02;16.00;99.90
31695;DHT22;18289;51.330;4.946;2022-09-09T06:38:29;16.10;99.90
31695;DHT22;18289;51.330;4.946;2022-09-09T06:40:59;16.20;99.90
31695;DHT22;18289;51.330;4.946;2022-09-09T06:43:26;16.20;99.90
31695;DHT22;18289;51.330;4.946;2022-09-09T06:46:00;16.20;99.90
31695;DHT22;18289;51.330;4.946;2022-09-09T06:48:27;16.20;99.90
31695;DHT22;18289;51.330;4.946;2022-09-09T06:51:16;16.20;99.90
31695;DHT22;18289;51.330;4.946;2022-09-09T06:53:44;16.20;99.90
31695;DHT22;18289;51.330;4.946;2022-09-09T06:58:45;16.30;99.90
31695;DHT22;18289;51.330;4.946;2022-09-09T07:01:15;16.30;99.90
31695;DHT22;18289;51.330;4.946;2022-09-09T07:03:42;16.50;99.90
31695;DHT22;18289;51.330;4.946;2022-09-09T07:06:19;16.60;99.90
31695;DHT22;18289;51.330;4.946;2022-09-09T07:08:49;16.70;99.90
31695;DHT22;18289;51.330;4.946;2022-09-09T07:11:16;16.90;99.90
31695;DHT22;18289;51.330;4.946;2022-09-09T07:13:41;16.90;99.90
31695;DHT22;18289;51.330;4.946;2022-09-09T07:16:10;16.90;99.90
31695;DHT22;18289;51.330;4.946;2022-09-09T07:18:36;16.90;99.90
31695;DHT22;18289;51.330;4.946;2022-09-09T07:21:03;16.90;99.90
31695;DHT22;18289;51.330;4.946;2022-09-09T07:23:29;17.00;99.90
31695;DHT22;18289;51.330;4.946;2022-09-09T07:25:58;17.10;99.90
31695;DHT22;18289;51.330;4.946;2022-09-09T07:28:25;17.10;99.90
31695;DHT22;18289;51.330;4.946;2022-09-09T07:30:59;17.30;99.90
31695;DHT22;18289;51.330;4.946;2022-09-09T07:33:27;17.40;99.90
31695;DHT22;18289;51.330;4.946;2022-09-09T07:36:06;17.30;99.90
31695;DHT22;18289;51.330;4.946;2022-09-09T07:38:47;17.30;99.90
31695;DHT22;18289;51.330;4.946;2022-09-09T07:41:21;17.20;99.90
31695;DHT22;18289;51.330;4.946;2022-09-09T07:43:48;17.20;99.90
31695;DHT22;18289;51.330;4.946;2022-09-09T07:46:16;17.20;99.90
31695;DHT22;18289;51.330;4.946;2022-09-09T07:48:46;17.00;99.90
31695;DHT22;18289;51.330;4.946;2022-09-09T07:51:18;17.00;99.90
31695;DHT22;18289;51.330;4.946;2022-09-09T07:53:45;17.10;99.90
31695;DHT22;18289;51.330;4.946;2022-09-09T07:56:16;17.30;99.90
31695;DHT22;18289;51.330;4.946;2022-09-09T07:58:45;17.40;99.90
31695;DHT22;18289;51.330;4.946;2022-09-09T08:01:23;17.40;99.90
31695;DHT22;18289;51.330;4.946;2022-09-09T08:03:57;17.30;99.90
31695;DHT22;18289;51.330;4.946;2022-09-09T08:06:31;17.20;99.90
31695;DHT22;18289;51.330;4.946;2022-09-09T08:08:58;17.10;99.90
31695;DHT22;18289;51.330;4.946;2022-09-09T08:11:26;17.20;99.90
31695;DHT22;18289;51.330;4.946;2022-09-09T08:13:52;17.20;99.90
31695;DHT22;18289;51.330;4.946;2022-09-09T08:16:20;17.30;99.90
31695;DHT22;18289;51.330;4.946;2022-09-09T08:18:50;17.30;99.90
31695;DHT22;18289;51.330;4.946;2022-09-09T08:21:19;17.30;99.90
31695;DHT22;18289;51.330;4.946;2022-09-09T08:23:47;17.40;99.90
31695;DHT22;18289;51.330;4.946;2022-09-09T08:26:15;17.50;99.90
31695;DHT22;18289;51.330;4.946;2022-09-09T08:28:42;17.60;99.90
31695;DHT22;18289;51.330;4.946;2022-09-09T08:31:13;17.50;99.90
31695;DHT22;18289;51.330;4.946;2022-09-09T08:33:40;17.60;99.90
31695;DHT22;18289;51.330;4.946;2022-09-09T08:36:10;17.60;99.90
31695;DHT22;18289;51.330;4.946;2022-09-09T08:38:37;17.60;99.90
31695;DHT22;18289;51.330;4.946;2022-09-09T08:41:28;17.50;99.90
31695;DHT22;18289;51.330;4.946;2022-09-09T08:44:13;17.50;99.90
31695;DHT22;18289;51.330;4.946;2022-09-09T08:52:31;17.50;99.90
31695;DHT22;18289;51.330;4.946;2022-09-09T08:55:29;17.20;99.90
31695;DHT22;18289;51.330;4.946;2022-09-09T08:58:14;17.20;99.90
31695;DHT22;18289;51.330;4.946;2022-09-09T09:12:14;16.90;99.90
31695;DHT22;18289;51.330;4.946;2022-09-09T09:14:40;16.90;99.90
31695;DHT22;18289;51.330;4.946;2022-09-09T09:17:12;16.80;99.90
31695;DHT22;18289;51.330;4.946;2022-09-09T09:19:41;16.80;99.90
31695;DHT22;18289;51.330;4.946;2022-09-09T09:22:35;16.90;99.90
31695;DHT22;18289;51.330;4.946;2022-09-09T09:25:27;16.80;99.90
31695;DHT22;18289;51.330;4.946;2022-09-09T09:30:39;16.70;99.90
31695;DHT22;18289;51.330;4.946;2022-09-09T09:33:20;16.80;99.90
31695;DHT22;18289;51.330;4.946;2022-09-09T09:35:51;16.70;99.90
31695;DHT22;18289;51.330;4.946;2022-09-09T09:38:19;16.70;99.90
31695;DHT22;18289;51.330;4.946;2022-09-09T09:40:54;16.60;99.90
31695;DHT22;18289;51.330;4.946;2022-09-09T09:43:33;16.70;99.90
31695;DHT22;18289;51.330;4.946;2022-09-09T09:45:59;16.60;99.90
31695;DHT22;18289;51.330;4.946;2022-09-09T09:48:27;16.70;99.90
31695;DHT22;18289;51.330;4.946;2022-09-09T09:53:29;16.90;99.90
31695;DHT22;18289;51.330;4.946;2022-09-09T09:56:04;17.00;99.90
31695;DHT22;18289;51.330;4.946;2022-09-09T09:58:32;17.10;99.90
31695;DHT22;18289;51.330;4.946;2022-09-09T10:01:00;17.10;99.90
31695;DHT22;18289;51.330;4.946;2022-09-09T10:03:34;17.30;99.90
31695;DHT22;18289;51.330;4.946;2022-09-09T10:06:06;17.30;99.90
31695;DHT22;18289;51.330;4.946;2022-09-09T10:08:43;17.40;99.90
31695;DHT22;18289;51.330;4.946;2022-09-09T10:19:31;17.80;99.90
31695;DHT22;18289;51.330;4.946;2022-09-09T10:22:25;17.70;99.90
31695;DHT22;18289;51.330;4.946;2022-09-09T10:25:01;17.60;99.90
31695;DHT22;18289;51.330;4.946;2022-09-09T10:27:55;17.30;99.90
31695;DHT22;18289;51.330;4.946;2022-09-09T10:33:49;17.40;99.90
31695;DHT22;18289;51.330;4.946;2022-09-09T10:36:25;17.30;99.90
31695;DHT22;18289;51.330;4.946;2022-09-09T10:44:21;17.10;99.90
31695;DHT22;18289;51.330;4.946;2022-09-09T10:52:16;16.80;99.90
31695;DHT22;18289;51.330;4.946;2022-09-09T10:55:00;16.80;99.90
31695;DHT22;18289;51.330;4.946;2022-09-09T10:57:36;16.80;99.90
31695;DHT22;18289;51.330;4.946;2022-09-09T11:00:24;16.90;99.90
31695;DHT22;18289;51.330;4.946;2022-09-09T11:03:00;16.80;99.90
31695;DHT22;18289;51.330;4.946;2022-09-09T11:05:42;16.80;99.90
31695;DHT22;18289;51.330;4.946;2022-09-09T11:08:16;16.80;99.90
31695;DHT22;18289;51.330;4.946;2022-09-09T11:10:59;16.70;99.90
31695;DHT22;18289;51.330;4.946;2022-09-09T11:16:28;16.70;99.90
31695;DHT22;18289;51.330;4.946;2022-09-09T11:19:09;16.80;99.90
31695;DHT22;18289;51.330;4.946;2022-09-09T11:21:48;16.90;99.90
31695;DHT22;18289;51.330;4.946;2022-09-09T11:24:35;16.90;99.90
31695;DHT22;18289;51.330;4.946;2022-09-09T11:38:22;18.00;99.90
31695;DHT22;18289;51.330;4.946;2022-09-09T11:40:56;18.40;99.90
31695;DHT22;18289;51.330;4.946;2022-09-09T11:43:28;18.60;99.90
31695;DHT22;18289;51.330;4.946;2022-09-09T11:45:58;18.50;99.90
31695;DHT22;18289;51.330;4.946;2022-09-09T11:48:34;18.30;99.90
31695;DHT22;18289;51.330;4.946;2022-09-09T11:53:34;18.40;99.90
31695;DHT22;18289;51.330;4.946;2022-09-09T11:56:07;18.40;99.90
31695;DHT22;18289;51.330;4.946;2022-09-09T11:58:53;18.50;99.90
31695;DHT22;18289;51.330;4.946;2022-09-09T12:01:41;18.40;99.90
31695;DHT22;18289;51.330;4.946;2022-09-09T12:06:56;18.00;99.90
31695;DHT22;18289;51.330;4.946;2022-09-09T12:12:22;17.80;99.90
31695;DHT22;18289;51.330;4.946;2022-09-09T12:17:53;17.90;99.90
31695;DHT22;18289;51.330;4.946;2022-09-09T12:33:44;19.90;99.90
31695;DHT22;18289;51.330;4.946;2022-09-09T12:36:26;20.10;99.90
31695;DHT22;18289;51.330;4.946;2022-09-09T12:38:57;20.10;99.90
31695;DHT22;18289;51.330;4.946;2022-09-09T12:41:27;20.20;99.90
31695;DHT22;18289;51.330;4.946;2022-09-09T12:44:06;20.20;99.90
31695;DHT22;18289;51.330;4.946;2022-09-09T12:46:38;20.40;99.90
31695;DHT22;18289;51.330;4.946;2022-09-09T12:49:34;20.60;99.90
31695;DHT22;18289;51.330;4.946;2022-09-09T12:52:09;20.80;99.90
31695;DHT22;18289;51.330;4.946;2022-09-09T12:54:44;21.00;99.90
31695;DHT22;18289;51.330;4.946;2022-09-09T12:57:13;20.80;99.90
31695;DHT22;18289;51.330;4.946;2022-09-09T12:59:41;20.90;99.90
31695;DHT22;18289;51.330;4.946;2022-09-09T13:02:24;20.90;99.90
31695;DHT22;18289;51.330;4.946;2022-09-09T13:04:50;20.80;99.90
31695;DHT22;18289;51.330;4.946;2022-09-09T13:07:18;20.60;99.90
31695;DHT22;18289;51.330;4.946;2022-09-09T13:09:46;20.70;99.90
31695;DHT22;18289;51.330;4.946;2022-09-09T13:12:19;21.10;99.90
31695;DHT22;18289;51.330;4.946;2022-09-09T13:14:47;21.30;99.90
31695;DHT22;18289;51.330;4.946;2022-09-09T13:17:22;21.30;99.90
31695;DHT22;18289;51.330;4.946;2022-09-09T13:19:49;21.20;99.90
31695;DHT22;18289;51.330;4.946;2022-09-09T13:27:32;21.10;99.90
31695;DHT22;18289;51.330;4.946;2022-09-09T13:29:59;20.90;99.90
31695;DHT22;18289;51.330;4.946;2022-09-09T13:32:26;20.60;99.90
31695;DHT22;18289;51.330;4.946;2022-09-09T13:34:56;20.70;99.90
31695;DHT22;18289;51.330;4.946;2022-09-09T13:39:59;20.50;99.90
31695;DHT22;18289;51.330;4.946;2022-09-09T13:42:27;20.60;99.90
31695;DHT22;18289;51.330;4.946;2022-09-09T13:44:55;21.40;99.90
31695;DHT22;18289;51.330;4.946;2022-09-09T13:50:09;24.00;99.90
31695;DHT22;18289;51.330;4.946;2022-09-09T13:52:35;23.90;99.90
31695;DHT22;18289;51.330;4.946;2022-09-09T13:55:01;23.50;99.90
31695;DHT22;18289;51.330;4.946;2022-09-09T13:57:26;23.10;99.90
31695;DHT22;18289;51.330;4.946;2022-09-09T13:59:53;22.70;99.90
31695;DHT22;18289;51.330;4.946;2022-09-09T14:02:22;22.50;99.90
31695;DHT22;18289;51.330;4.946;2022-09-09T14:04:49;22.10;99.90
31695;DHT22;18289;51.330;4.946;2022-09-09T14:07:17;22.60;99.90
31695;DHT22;18289;51.330;4.946;2022-09-09T14:09:44;23.10;99.90
31695;DHT22;18289;51.330;4.946;2022-09-09T14:12:14;23.20;99.90
31695;DHT22;18289;51.330;4.946;2022-09-09T14:14:41;23.30;99.90
31695;DHT22;18289;51.330;4.946;2022-09-09T14:17:08;22.80;99.90
31695;DHT22;18289;51.330;4.946;2022-09-09T14:19:34;23.00;99.90
31695;DHT22;18289;51.330;4.946;2022-09-09T14:22:00;22.90;99.90
31695;DHT22;18289;51.330;4.946;2022-09-09T14:24:26;22.90;99.90
31695;DHT22;18289;51.330;4.946;2022-09-09T14:26:54;23.80;99.90
31695;DHT22;18289;51.330;4.946;2022-09-09T14:29:19;24.10;99.90
31695;DHT22;18289;51.330;4.946;2022-09-09T14:31:45;24.70;99.90
31695;DHT22;18289;51.330;4.946;2022-09-09T14:34:11;25.10;99.90
31695;DHT22;18289;51.330;4.946;2022-09-09T14:36:37;24.20;99.90
31695;DHT22;18289;51.330;4.946;2022-09-09T14:39:04;23.50;99.90
31695;DHT22;18289;51.330;4.946;2022-09-09T14:41:30;23.80;99.90
31695;DHT22;18289;51.330;4.946;2022-09-09T14:43:56;23.60;99.90
31695;DHT22;18289;51.330;4.946;2022-09-09T14:46:23;23.20;99.90
31695;DHT22;18289;51.330;4.946;2022-09-09T14:48:49;22.90;99.90
31695;DHT22;18289;51.330;4.946;2022-09-09T14:51:23;23.40;99.90
31695;DHT22;18289;51.330;4.946;2022-09-09T14:53:57;23.20;99.90
31695;DHT22;18289;51.330;4.946;2022-09-09T14:56:26;22.80;99.90
31695;DHT22;18289;51.330;4.946;2022-09-09T14:58:55;22.40;99.90
31695;DHT22;18289;51.330;4.946;2022-09-09T15:01:21;22.10;99.90
31695;DHT22;18289;51.330;4.946;2022-09-09T15:03:52;22.30;99.90
31695;DHT22;18289;51.330;4.946;2022-09-09T15:06:19;22.90;99.90
31695;DHT22;18289;51.330;4.946;2022-09-09T15:08:46;23.40;99.90
31695;DHT22;18289;51.330;4.946;2022-09-09T15:11:14;23.60;99.90
31695;DHT22;18289;51.330;4.946;2022-09-09T15:13:41;23.10;99.90
31695;DHT22;18289;51.330;4.946;2022-09-09T15:16:10;22.90;99.90
31695;DHT22;18289;51.330;4.946;2022-09-09T15:18:38;22.50;99.90
31695;DHT22;18289;51.330;4.946;2022-09-09T15:21:12;22.30;99.90
31695;DHT22;18289;51.330;4.946;2022-09-09T15:23:38;22.30;99.90
31695;DHT22;18289;51.330;4.946;2022-09-09T15:26:05;22.70;99.90
31695;DHT22;18289;51.330;4.946;2022-09-09T15:28:35;24.00;99.90
31695;DHT22;18289;51.330;4.946;2022-09-09T15:31:05;25.70;99.90
31695;DHT22;18289;51.330;4.946;2022-09-09T15:33:32;25.80;99.90
31695;DHT22;18289;51.330;4.946;2022-09-09T15:35:58;24.80;99.90
31695;DHT22;18289;51.330;4.946;2022-09-09T15:38:24;24.00;99.90
31695;DHT22;18289;51.330;4.946;2022-09-09T15:40:54;23.30;99.90
31695;DHT22;18289;51.330;4.946;2022-09-09T15:43:21;22.40;99.90
31695;DHT22;18289;51.330;4.946;2022-09-09T15:45:53;21.90;99.90
31695;DHT22;18289;51.330;4.946;2022-09-09T15:48:30;21.40;99.90
31695;DHT22;18289;51.330;4.946;2022-09-09T15:51:02;21.00;99.90
31695;DHT22;18289;51.330;4.946;2022-09-09T15:53:29;20.70;99.90
31695;DHT22;18289;51.330;4.946;2022-09-09T15:55:58;20.40;99.90
31695;DHT22;18289;51.330;4.946;2022-09-09T15:58:24;19.20;99.90
31695;DHT22;18289;51.330;4.946;2022-09-09T16:00:50;18.10;99.90
31695;DHT22;18289;51.330;4.946;2022-09-09T16:03:16;17.30;99.90
31695;DHT22;18289;51.330;4.946;2022-09-09T16:05:42;16.90;99.90
31695;DHT22;18289;51.330;4.946;2022-09-09T16:08:08;16.80;99.90
31695;DHT22;18289;51.330;4.946;2022-09-09T16:10:34;16.70;99.90
31695;DHT22;18289;51.330;4.946;2022-09-09T16:13:00;16.50;99.90
31695;DHT22;18289;51.330;4.946;2022-09-09T16:15:27;16.80;99.90
31695;DHT22;18289;51.330;4.946;2022-09-09T16:17:55;16.70;99.90
31695;DHT22;18289;51.330;4.946;2022-09-09T16:20:21;16.60;99.90
31695;DHT22;18289;51.330;4.946;2022-09-09T16:22:47;16.60;99.90
31695;DHT22;18289;51.330;4.946;2022-09-09T16:25:13;16.70;99.90
31695;DHT22;18289;51.330;4.946;2022-09-09T16:27:40;16.80;99.90
31695;DHT22;18289;51.330;4.946;2022-09-09T16:30:06;16.90;99.90
31695;DHT22;18289;51.330;4.946;2022-09-09T16:32:32;16.90;99.90
31695;DHT22;18289;51.330;4.946;2022-09-09T16:35:00;17.00;99.90
31695;DHT22;18289;51.330;4.946;2022-09-09T16:37:25;17.10;99.90
31695;DHT22;18289;51.330;4.946;2022-09-09T16:39:51;17.20;99.90
31695;DHT22;18289;51.330;4.946;2022-09-09T16:42:17;17.40;99.90
31695;DHT22;18289;51.330;4.946;2022-09-09T16:44:42;17.50;99.90
31695;DHT22;18289;51.330;4.946;2022-09-09T16:47:08;17.80;99.90
31695;DHT22;18289;51.330;4.946;2022-09-09T16:49:34;18.00;99.90
31695;DHT22;18289;51.330;4.946;2022-09-09T16:52:00;18.30;99.90
31695;DHT22;18289;51.330;4.946;2022-09-09T16:54:25;18.40;99.90
31695;DHT22;18289;51.330;4.946;2022-09-09T16:56:52;18.50;99.90
31695;DHT22;18289;51.330;4.946;2022-09-09T16:59:20;18.70;99.90
31695;DHT22;18289;51.330;4.946;2022-09-09T17:01:48;18.70;99.90
31695;DHT22;18289;51.330;4.946;2022-09-09T17:04:17;18.70;99.90
31695;DHT22;18289;51.330;4.946;2022-09-09T17:06:47;18.70;99.90
31695;DHT22;18289;51.330;4.946;2022-09-09T17:09:14;18.60;99.90
31695;DHT22;18289;51.330;4.946;2022-09-09T17:11:41;18.60;99.90
31695;DHT22;18289;51.330;4.946;2022-09-09T17:14:08;18.60;99.90
31695;DHT22;18289;51.330;4.946;2022-09-09T17:16:35;18.50;99.90
31695;DHT22;18289;51.330;4.946;2022-09-09T17:19:02;18.50;99.90
31695;DHT22;18289;51.330;4.946;2022-09-09T17:21:29;18.40;99.90
31695;DHT22;18289;51.330;4.946;2022-09-09T17:23:56;18.40;99.90
31695;DHT22;18289;51.330;4.946;2022-09-09T17:26:26;18.30;99.90
31695;DHT22;18289;51.330;4.946;2022-09-09T17:28:56;18.30;99.90
31695;DHT22;18289;51.330;4.946;2022-09-09T17:31:24;18.20;99.90
31695;DHT22;18289;51.330;4.946;2022-09-09T17:33:51;18.10;99.90
31695;DHT22;18289;51.330;4.946;2022-09-09T17:36:27;17.90;99.90
31695;DHT22;18289;51.330;4.946;2022-09-09T17:38:53;17.80;99.90
31695;DHT22;18289;51.330;4.946;2022-09-09T17:43:49;17.70;99.90
31695;DHT22;18289;51.330;4.946;2022-09-09T17:46:18;17.60;99.90
31695;DHT22;18289;51.330;4.946;2022-09-09T17:48:45;17.50;99.90
31695;DHT22;18289;51.330;4.946;2022-09-09T17:51:13;17.40;99.90
31695;DHT22;18289;51.330;4.946;2022-09-09T17:53:44;17.40;99.90
31695;DHT22;18289;51.330;4.946;2022-09-09T17:56:13;17.30;99.90
31695;DHT22;18289;51.330;4.946;2022-09-09T17:58:40;17.30;99.90
31695;DHT22;18289;51.330;4.946;2022-09-09T18:01:09;17.20;99.90
31695;DHT22;18289;51.330;4.946;2022-09-09T18:03:36;17.20;99.90
31695;DHT22;18289;51.330;4.946;2022-09-09T18:06:04;17.30;99.90
31695;DHT22;18289;51.330;4.946;2022-09-09T18:08:31;17.30;99.90
31695;DHT22;18289;51.330;4.946;2022-09-09T18:10:57;17.30;99.90
31695;DHT22;18289;51.330;4.946;2022-09-09T18:13:23;17.30;99.90
31695;DHT22;18289;51.330;4.946;2022-09-09T18:15:49;17.20;99.90